sensor_id;sensor_type;location;lat;lon;timestamp;pressure;altitude;pressure_sealevel;temperature;humidity
68077;BME280;54866;53.458;14.540;2023-06-04T00:01:44;101372.80;;;10.73;48.43
68077;BME280;54866;53.458;14.540;2023-06-04T00:04:14;101374.33;;;10.77;48.26
68077;BME280;54866;53.458;14.540;2023-06-04T00:06:47;101370.37;;;10.78;48.32
68077;BME280;54866;53.458;14.540;2023-06-04T00:09:20;101358.10;;;10.74;48.35
68077;BME280;54866;53.458;14.540;2023-06-04T00:11:59;101349.55;;;10.71;48.33
68077;BME280;54866;53.458;14.540;2023-06-04T00:14:30;101366.08;;;10.81;48.42
68077;BME280;54866;53.458;14.540;2023-06-04T00:17:02;101360.19;;;10.77;48.43
68077;BME280;54866;53.458;14.540;2023-06-04T00:19:36;101365.73;;;10.79;48.58
68077;BME280;54866;53.458;14.540;2023-06-04T00:22:09;101362.50;;;10.77;48.77
68077;BME280;54866;53.458;14.540;2023-06-04T00:24:42;101358.00;;;10.76;49.07
68077;BME280;54866;53.458;14.540;2023-06-04T00:27:42;101361.08;;;10.74;49.17
68077;BME280;54866;53.458;14.540;2023-06-04T00:30:14;101336.45;;;10.61;49.38
68077;BME280;54866;53.458;14.540;2023-06-04T00:32:44;101352.52;;;10.68;49.49
68077;BME280;54866;53.458;14.540;2023-06-04T00:35:20;101351.70;;;10.65;49.65
68077;BME280;54866;53.458;14.540;2023-06-04T00:37:48;101327.38;;;10.47;49.73
68077;BME280;54866;53.458;14.540;2023-06-04T00:40:25;101351.86;;;10.60;50.08
68077;BME280;54866;53.458;14.540;2023-06-04T00:42:55;101349.32;;;10.58;50.29
68077;BME280;54866;53.458;14.540;2023-06-04T00:45:32;101348.16;;;10.57;50.57
68077;BME280;54866;53.458;14.540;2023-06-04T00:48:07;101348.54;;;10.56;50.56
68077;BME280;54866;53.458;14.540;2023-06-04T00:50:38;101351.58;;;10.56;50.56
68077;BME280;54866;53.458;14.540;2023-06-04T00:53:09;101353.42;;;10.55;50.39
68077;BME280;54866;53.458;14.540;2023-06-04T00:55:49;101355.73;;;10.52;50.66
68077;BME280;54866;53.458;14.540;2023-06-04T00:58:22;101348.39;;;10.46;50.77
68077;BME280;54866;53.458;14.540;2023-06-04T01:00:58;101349.90;;;10.42;50.98
68077;BME280;54866;53.458;14.540;2023-06-04T01:03:33;101348.45;;;10.37;51.15
68077;BME280;54866;53.458;14.540;2023-06-04T01:06:11;101349.67;;;10.35;51.21
68077;BME280;54866;53.458;14.540;2023-06-04T01:08:45;101349.95;;;10.33;51.23
68077;BME280;54866;53.458;14.540;2023-06-04T01:11:17;101349.20;;;10.32;51.24
68077;BME280;54866;53.458;14.540;2023-06-04T01:13:54;101333.16;;;10.21;51.46
68077;BME280;54866;53.458;14.540;2023-06-04T01:16:33;101348.37;;;10.25;51.67
68077;BME280;54866;53.458;14.540;2023-06-04T01:19:09;101345.29;;;10.24;51.81
68077;BME280;54866;53.458;14.540;2023-06-04T01:21:52;101345.14;;;10.24;51.83
68077;BME280;54866;53.458;14.540;2023-06-04T01:24:27;101334.36;;;10.19;52.06
68077;BME280;54866;53.458;14.540;2023-06-04T01:26:59;101342.93;;;10.19;52.21
68077;BME280;54866;53.458;14.540;2023-06-04T01:29:29;101339.98;;;10.16;52.31
68077;BME280;54866;53.458;14.540;2023-06-04T01:32:07;101341.37;;;10.14;52.29
68077;BME280;54866;53.458;14.540;2023-06-04T01:34:48;101340.07;;;10.09;52.56
68077;BME280;54866;53.458;14.540;2023-06-04T01:37:25;101344.16;;;10.06;52.73
68077;BME280;54866;53.458;14.540;2023-06-04T01:39:58;101342.08;;;10.03;52.87
68077;BME280;54866;53.458;14.540;2023-06-04T01:42:30;101343.17;;;10.00;52.95
68077;BME280;54866;53.458;14.540;2023-06-04T01:45:00;101340.59;;;9.99;53.25
68077;BME280;54866;53.458;14.540;2023-06-04T01:47:30;101339.55;;;9.98;53.08
68077;BME280;54866;53.458;14.540;2023-06-04T01:50:09;101334.31;;;9.97;53.25
68077;BME280;54866;53.458;14.540;2023-06-04T01:52:41;101337.04;;;9.96;53.37
68077;BME280;54866;53.458;14.540;2023-06-04T01:55:20;101331.33;;;9.92;53.61
68077;BME280;54866;53.458;14.540;2023-06-04T01:57:53;101335.54;;;9.93;53.62
68077;BME280;54866;53.458;14.540;2023-06-04T02:00:30;101340.10;;;9.90;53.90
68077;BME280;54866;53.458;14.540;2023-06-04T02:03:00;101335.42;;;9.88;54.26
68077;BME280;54866;53.458;14.540;2023-06-04T02:05:34;101334.62;;;9.87;54.13
68077;BME280;54866;53.458;14.540;2023-06-04T02:08:05;101327.03;;;9.85;54.42
68077;BME280;54866;53.458;14.540;2023-06-04T02:10:37;101328.20;;;9.84;54.51
68077;BME280;54866;53.458;14.540;2023-06-04T02:13:07;101328.72;;;9.81;54.74
68077;BME280;54866;53.458;14.540;2023-06-04T02:15:37;101321.98;;;9.74;54.82
68077;BME280;54866;53.458;14.540;2023-06-04T02:18:16;101324.94;;;9.74;55.03
68077;BME280;54866;53.458;14.540;2023-06-04T02:20:47;101321.74;;;9.69;55.17
68077;BME280;54866;53.458;14.540;2023-06-04T02:23:19;101324.08;;;9.71;55.36
68077;BME280;54866;53.458;14.540;2023-06-04T02:25:49;101328.19;;;9.70;55.64
68077;BME280;54866;53.458;14.540;2023-06-04T02:28:20;101328.15;;;9.68;55.65
68077;BME280;54866;53.458;14.540;2023-06-04T02:30:49;101328.54;;;9.67;55.92
68077;BME280;54866;53.458;14.540;2023-06-04T02:33:19;101327.34;;;9.67;56.08
68077;BME280;54866;53.458;14.540;2023-06-04T02:35:49;101327.34;;;9.67;56.08
68077;BME280;54866;53.458;14.540;2023-06-04T02:38:19;101326.16;;;9.66;56.54
68077;BME280;54866;53.458;14.540;2023-06-04T02:40:49;101326.77;;;9.65;56.67
68077;BME280;54866;53.458;14.540;2023-06-04T02:43:19;101318.52;;;9.59;57.00
68077;BME280;54866;53.458;14.540;2023-06-04T02:45:49;101326.20;;;9.65;57.15
68077;BME280;54866;53.458;14.540;2023-06-04T02:48:26;101327.51;;;9.67;57.18
68077;BME280;54866;53.458;14.540;2023-06-04T02:50:56;101326.92;;;9.68;57.56
68077;BME280;54866;53.458;14.540;2023-06-04T02:53:26;101329.81;;;9.69;57.42
68077;BME280;54866;53.458;14.540;2023-06-04T02:55:56;101329.23;;;9.70;57.62
68077;BME280;54866;53.458;14.540;2023-06-04T02:58:27;101331.30;;;9.71;58.06
68077;BME280;54866;53.458;14.540;2023-06-04T03:00:59;101333.30;;;9.73;58.21
68077;BME280;54866;53.458;14.540;2023-06-04T03:03:29;101334.13;;;9.76;58.06
68077;BME280;54866;53.458;14.540;2023-06-04T03:06:00;101333.33;;;9.78;58.35
68077;BME280;54866;53.458;14.540;2023-06-04T03:08:30;101334.98;;;9.79;58.14
68077;BME280;54866;53.458;14.540;2023-06-04T03:11:03;101335.60;;;9.81;58.13
68077;BME280;54866;53.458;14.540;2023-06-04T03:13:33;101332.39;;;9.81;58.23
68077;BME280;54866;53.458;14.540;2023-06-04T03:16:04;101333.05;;;9.82;58.19
68077;BME280;54866;53.458;14.540;2023-06-04T03:18:39;101330.00;;;9.80;58.53
68077;BME280;54866;53.458;14.540;2023-06-04T03:21:10;101331.59;;;9.85;59.21
68077;BME280;54866;53.458;14.540;2023-06-04T03:23:42;101334.04;;;9.88;59.57
68077;BME280;54866;53.458;14.540;2023-06-04T03:26:12;101338.23;;;9.92;59.85
68077;BME280;54866;53.458;14.540;2023-06-04T03:28:42;101339.98;;;9.95;59.72
68077;BME280;54866;53.458;14.540;2023-06-04T03:31:14;101341.31;;;9.98;59.80
68077;BME280;54866;53.458;14.540;2023-06-04T03:33:44;101342.05;;;10.03;59.71
68077;BME280;54866;53.458;14.540;2023-06-04T03:36:14;101343.70;;;10.08;59.56
68077;BME280;54866;53.458;14.540;2023-06-04T03:38:46;101344.55;;;10.11;59.27
68077;BME280;54866;53.458;14.540;2023-06-04T03:41:16;101344.73;;;10.13;59.17
68077;BME280;54866;53.458;14.540;2023-06-04T03:43:46;101344.21;;;10.16;58.83
68077;BME280;54866;53.458;14.540;2023-06-04T03:46:18;101339.17;;;10.17;58.97
68077;BME280;54866;53.458;14.540;2023-06-04T03:48:48;101336.39;;;10.20;58.77
68077;BME280;54866;53.458;14.540;2023-06-04T03:51:18;101342.20;;;10.25;59.00
68077;BME280;54866;53.458;14.540;2023-06-04T03:53:48;101337.86;;;10.27;58.84
68077;BME280;54866;53.458;14.540;2023-06-04T03:56:17;101337.64;;;10.33;58.74
68077;BME280;54866;53.458;14.540;2023-06-04T03:58:48;101338.01;;;10.38;58.60
68077;BME280;54866;53.458;14.540;2023-06-04T04:01:18;101337.07;;;10.42;58.67
68077;BME280;54866;53.458;14.540;2023-06-04T04:03:48;101338.02;;;10.46;58.58
68077;BME280;54866;53.458;14.540;2023-06-04T04:06:23;101341.98;;;10.52;58.56
68077;BME280;54866;53.458;14.540;2023-06-04T04:08:53;101341.57;;;10.58;58.50
68077;BME280;54866;53.458;14.540;2023-06-04T04:11:26;101342.22;;;10.64;58.41
68077;BME280;54866;53.458;14.540;2023-06-04T04:13:56;101329.67;;;10.65;58.14
68077;BME280;54866;53.458;14.540;2023-06-04T04:16:27;101335.95;;;10.76;57.82
68077;BME280;54866;53.458;14.540;2023-06-04T04:18:57;101336.96;;;10.82;57.84
68077;BME280;54866;53.458;14.540;2023-06-04T04:21:27;101337.73;;;10.86;57.47
68077;BME280;54866;53.458;14.540;2023-06-04T04:23:59;101337.35;;;10.89;57.38
68077;BME280;54866;53.458;14.540;2023-06-04T04:26:29;101337.21;;;10.94;57.39
68077;BME280;54866;53.458;14.540;2023-06-04T04:28:59;101334.34;;;10.94;57.54
68077;BME280;54866;53.458;14.540;2023-06-04T04:31:29;101339.80;;;10.99;57.80
68077;BME280;54866;53.458;14.540;2023-06-04T04:34:01;101336.95;;;11.05;57.85
68077;BME280;54866;53.458;14.540;2023-06-04T04:36:35;101339.49;;;11.14;57.75
68077;BME280;54866;53.458;14.540;2023-06-04T04:39:08;101339.59;;;11.25;57.75
68077;BME280;54866;53.458;14.540;2023-06-04T04:41:38;101336.79;;;11.30;57.78
68077;BME280;54866;53.458;14.540;2023-06-04T04:44:08;101342.07;;;11.40;57.96
68077;BME280;54866;53.458;14.540;2023-06-04T04:46:39;101326.66;;;11.40;58.13
68077;BME280;54866;53.458;14.540;2023-06-04T04:49:09;101339.14;;;11.63;58.03
68077;BME280;54866;53.458;14.540;2023-06-04T04:51:39;101336.80;;;11.76;58.07
68077;BME280;54866;53.458;14.540;2023-06-04T04:54:12;101339.96;;;11.91;57.80
68077;BME280;54866;53.458;14.540;2023-06-04T04:56:41;101340.67;;;12.05;57.69
68077;BME280;54866;53.458;14.540;2023-06-04T04:59:11;101339.70;;;12.18;57.29
68077;BME280;54866;53.458;14.540;2023-06-04T05:01:41;101341.41;;;12.33;57.17
68077;BME280;54866;53.458;14.540;2023-06-04T05:04:12;101340.17;;;12.47;56.78
68077;BME280;54866;53.458;14.540;2023-06-04T05:06:42;101340.52;;;12.54;56.24
68077;BME280;54866;53.458;14.540;2023-06-04T05:09:11;101342.59;;;12.62;56.10
68077;BME280;54866;53.458;14.540;2023-06-04T05:11:43;101341.98;;;12.72;55.87
68077;BME280;54866;53.458;14.540;2023-06-04T05:14:13;101336.39;;;12.87;55.57
68077;BME280;54866;53.458;14.540;2023-06-04T05:16:44;101334.95;;;13.03;55.46
68077;BME280;54866;53.458;14.540;2023-06-04T05:19:16;101331.44;;;13.21;55.17
68077;BME280;54866;53.458;14.540;2023-06-04T05:21:47;101331.64;;;13.39;55.02
68077;BME280;54866;53.458;14.540;2023-06-04T05:24:17;101329.11;;;13.52;54.34
68077;BME280;54866;53.458;14.540;2023-06-04T05:26:47;101331.53;;;13.64;53.86
68077;BME280;54866;53.458;14.540;2023-06-04T05:29:17;101333.02;;;13.81;53.81
68077;BME280;54866;53.458;14.540;2023-06-04T05:31:47;101334.35;;;13.97;53.67
68077;BME280;54866;53.458;14.540;2023-06-04T05:34:18;101332.91;;;14.16;53.33
68077;BME280;54866;53.458;14.540;2023-06-04T05:36:49;101333.85;;;14.35;52.95
68077;BME280;54866;53.458;14.540;2023-06-04T05:39:21;101335.69;;;14.53;52.66
68077;BME280;54866;53.458;14.540;2023-06-04T05:41:52;101325.98;;;14.63;51.69
68077;BME280;54866;53.458;14.540;2023-06-04T05:44:24;101335.75;;;14.84;51.46
68077;BME280;54866;53.458;14.540;2023-06-04T05:46:56;101334.33;;;15.00;51.26
68077;BME280;54866;53.458;14.540;2023-06-04T05:49:30;101338.20;;;15.21;50.85
68077;BME280;54866;53.458;14.540;2023-06-04T05:52:00;101311.52;;;15.98;49.53
68077;BME280;54866;53.458;14.540;2023-06-04T05:54:34;101316.39;;;18.46;45.32
68077;BME280;54866;53.458;14.540;2023-06-04T05:57:09;101330.99;;;20.83;41.68
68077;BME280;54866;53.458;14.540;2023-06-04T05:59:42;101312.92;;;22.82;38.53
68077;BME280;54866;53.458;14.540;2023-06-04T06:02:19;101324.53;;;24.82;35.67
68077;BME280;54866;53.458;14.540;2023-06-04T06:04:55;101322.27;;;26.64;33.08
68077;BME280;54866;53.458;14.540;2023-06-04T06:07:30;101322.55;;;28.12;30.61
68077;BME280;54866;53.458;14.540;2023-06-04T06:10:06;101323.55;;;29.28;27.61
68077;BME280;54866;53.458;14.540;2023-06-04T06:12:47;101321.84;;;29.92;26.05
68077;BME280;54866;53.458;14.540;2023-06-04T06:18:12;101316.85;;;30.91;24.75
68077;BME280;54866;53.458;14.540;2023-06-04T06:20:47;101317.08;;;31.61;23.97
68077;BME280;54866;53.458;14.540;2023-06-04T06:23:20;101316.13;;;32.38;23.61
68077;BME280;54866;53.458;14.540;2023-06-04T06:26:02;101317.91;;;32.96;22.32
68077;BME280;54866;53.458;14.540;2023-06-04T06:28:39;101321.34;;;32.63;22.20
68077;BME280;54866;53.458;14.540;2023-06-04T06:31:21;101327.44;;;31.28;22.99
68077;BME280;54866;53.458;14.540;2023-06-04T06:34:02;101333.35;;;30.08;23.73
68077;BME280;54866;53.458;14.540;2023-06-04T06:36:34;101338.23;;;28.98;24.56
68077;BME280;54866;53.458;14.540;2023-06-04T06:39:15;101341.69;;;27.50;25.85
68077;BME280;54866;53.458;14.540;2023-06-04T06:41:51;101348.52;;;26.00;27.20
68077;BME280;54866;53.458;14.540;2023-06-04T06:44:24;101347.04;;;24.64;28.80
68077;BME280;54866;53.458;14.540;2023-06-04T06:46:57;101351.18;;;23.71;30.92
68077;BME280;54866;53.458;14.540;2023-06-04T06:49:31;101353.08;;;23.01;32.79
68077;BME280;54866;53.458;14.540;2023-06-04T06:52:08;101356.49;;;22.34;33.66
68077;BME280;54866;53.458;14.540;2023-06-04T06:54:40;101359.68;;;22.00;34.92
68077;BME280;54866;53.458;14.540;2023-06-04T06:57:12;101356.73;;;21.67;35.69
68077;BME280;54866;53.458;14.540;2023-06-04T06:59:45;101339.34;;;21.32;36.99
68077;BME280;54866;53.458;14.540;2023-06-04T07:02:24;101362.89;;;20.92;38.38
68077;BME280;54866;53.458;14.540;2023-06-04T07:04:56;101360.70;;;20.59;38.84
68077;BME280;54866;53.458;14.540;2023-06-04T07:07:26;101363.81;;;20.30;39.84
68077;BME280;54866;53.458;14.540;2023-06-04T07:09:57;101352.89;;;20.00;40.39
68077;BME280;54866;53.458;14.540;2023-06-04T07:12:29;101366.09;;;19.84;40.97
68077;BME280;54866;53.458;14.540;2023-06-04T07:15:13;101366.70;;;19.56;41.34
68077;BME280;54866;53.458;14.540;2023-06-04T07:18:22;101367.86;;;19.59;41.89
68077;BME280;54866;53.458;14.540;2023-06-04T07:21:10;101370.59;;;19.62;42.00
68077;BME280;54866;53.458;14.540;2023-06-04T07:23:51;101371.91;;;19.70;42.16
68077;BME280;54866;53.458;14.540;2023-06-04T07:26:23;101359.13;;;19.74;42.69
68077;BME280;54866;53.458;14.540;2023-06-04T07:28:53;101375.09;;;19.87;42.01
68077;BME280;54866;53.458;14.540;2023-06-04T07:31:27;101379.71;;;19.91;42.29
68077;BME280;54866;53.458;14.540;2023-06-04T07:33:59;101375.27;;;19.85;41.76
68077;BME280;54866;53.458;14.540;2023-06-04T07:36:32;101373.90;;;19.84;40.73
68077;BME280;54866;53.458;14.540;2023-06-04T07:39:07;101379.33;;;19.81;40.74
68077;BME280;54866;53.458;14.540;2023-06-04T07:41:45;101379.78;;;19.68;41.16
68077;BME280;54866;53.458;14.540;2023-06-04T07:44:22;101381.43;;;19.61;41.89
68077;BME280;54866;53.458;14.540;2023-06-04T07:46:57;101375.77;;;19.55;41.49
68077;BME280;54866;53.458;14.540;2023-06-04T07:49:31;101375.62;;;19.44;41.53
68077;BME280;54866;53.458;14.540;2023-06-04T07:52:07;101376.00;;;19.48;41.06
68077;BME280;54866;53.458;14.540;2023-06-04T07:54:42;101374.46;;;19.49;39.87
68077;BME280;54866;53.458;14.540;2023-06-04T07:57:18;101375.92;;;19.48;38.47
68077;BME280;54866;53.458;14.540;2023-06-04T07:59:52;101371.09;;;19.47;39.06
68077;BME280;54866;53.458;14.540;2023-06-04T08:02:35;101377.49;;;19.74;38.70
68077;BME280;54866;53.458;14.540;2023-06-04T08:05:13;101372.84;;;20.01;36.33
68077;BME280;54866;53.458;14.540;2023-06-04T08:07:53;101374.64;;;20.12;36.15
68077;BME280;54866;53.458;14.540;2023-06-04T08:10:44;101370.96;;;20.20;35.77
68077;BME280;54866;53.458;14.540;2023-06-04T08:13:24;101373.88;;;20.26;35.53
68077;BME280;54866;53.458;14.540;2023-06-04T08:16:08;101360.95;;;20.32;35.51
68077;BME280;54866;53.458;14.540;2023-06-04T08:18:51;101357.66;;;20.37;35.22
68077;BME280;54866;53.458;14.540;2023-06-04T08:21:47;101378.10;;;20.39;35.90
68077;BME280;54866;53.458;14.540;2023-06-04T08:24:19;101371.31;;;20.37;36.62
68077;BME280;54866;53.458;14.540;2023-06-04T08:26:55;101375.81;;;20.48;34.80
68077;BME280;54866;53.458;14.540;2023-06-04T08:29:32;101360.13;;;20.46;33.83
68077;BME280;54866;53.458;14.540;2023-06-04T08:32:10;101363.20;;;20.55;33.10
68077;BME280;54866;53.458;14.540;2023-06-04T08:34:49;101368.39;;;20.52;33.05
68077;BME280;54866;53.458;14.540;2023-06-04T08:37:22;101365.36;;;20.47;32.78
68077;BME280;54866;53.458;14.540;2023-06-04T08:40:08;101364.73;;;20.50;32.25
68077;BME280;54866;53.458;14.540;2023-06-04T08:42:55;101372.27;;;20.59;32.47
68077;BME280;54866;53.458;14.540;2023-06-04T08:45:36;101353.21;;;20.58;31.88
68077;BME280;54866;53.458;14.540;2023-06-04T08:48:12;101369.17;;;20.82;31.47
68077;BME280;54866;53.458;14.540;2023-06-04T08:50:55;101369.85;;;20.81;30.86
68077;BME280;54866;53.458;14.540;2023-06-04T08:53:49;101367.29;;;20.88;31.60
68077;BME280;54866;53.458;14.540;2023-06-04T08:56:24;101373.35;;;21.31;31.80
68077;BME280;54866;53.458;14.540;2023-06-04T08:59:11;101377.27;;;21.61;30.95
68077;BME280;54866;53.458;14.540;2023-06-04T09:02:17;101366.20;;;21.56;29.66
68077;BME280;54866;53.458;14.540;2023-06-04T09:05:19;101376.28;;;21.63;29.19
68077;BME280;54866;53.458;14.540;2023-06-04T09:08:12;101378.11;;;21.62;29.70
68077;BME280;54866;53.458;14.540;2023-06-04T09:10:57;101368.48;;;21.79;29.79
68077;BME280;54866;53.458;14.540;2023-06-04T09:13:34;101367.62;;;21.89;29.33
68077;BME280;54866;53.458;14.540;2023-06-04T09:16:14;101374.50;;;22.07;28.93
68077;BME280;54866;53.458;14.540;2023-06-04T09:19:19;101371.24;;;22.24;28.73
68077;BME280;54866;53.458;14.540;2023-06-04T09:22:00;101363.64;;;22.33;28.08
68077;BME280;54866;53.458;14.540;2023-06-04T09:24:49;101367.15;;;22.36;28.55
68077;BME280;54866;53.458;14.540;2023-06-04T09:27:52;101370.05;;;22.45;28.42
68077;BME280;54866;53.458;14.540;2023-06-04T09:30:43;101356.52;;;22.50;28.25
68077;BME280;54866;53.458;14.540;2023-06-04T09:33:52;101365.90;;;22.77;28.76
68077;BME280;54866;53.458;14.540;2023-06-04T09:39:38;101364.08;;;23.56;26.81
68077;BME280;54866;53.458;14.540;2023-06-04T09:42:14;101368.49;;;23.61;26.23
68077;BME280;54866;53.458;14.540;2023-06-04T09:44:57;101366.17;;;23.40;27.34
68077;BME280;54866;53.458;14.540;2023-06-04T09:50:36;101364.05;;;23.74;27.69
68077;BME280;54866;53.458;14.540;2023-06-04T09:53:23;101364.16;;;24.10;27.00
68077;BME280;54866;53.458;14.540;2023-06-04T09:56:21;101363.25;;;24.25;26.83
68077;BME280;54866;53.458;14.540;2023-06-04T09:59:03;101367.95;;;24.50;26.16
68077;BME280;54866;53.458;14.540;2023-06-04T10:01:56;101373.46;;;24.53;26.23
68077;BME280;54866;53.458;14.540;2023-06-04T10:04:38;101370.04;;;24.37;25.39
68077;BME280;54866;53.458;14.540;2023-06-04T10:07:31;101359.55;;;24.14;25.66
68077;BME280;54866;53.458;14.540;2023-06-04T10:10:14;101366.72;;;24.13;25.73
68077;BME280;54866;53.458;14.540;2023-06-04T10:12:54;101357.55;;;24.13;25.61
68077;BME280;54866;53.458;14.540;2023-06-04T10:15:54;101361.79;;;24.18;25.52
68077;BME280;54866;53.458;14.540;2023-06-04T10:18:45;101364.40;;;23.87;25.43
68077;BME280;54866;53.458;14.540;2023-06-04T10:21:22;101361.16;;;23.53;25.62
68077;BME280;54866;53.458;14.540;2023-06-04T10:24:12;101353.88;;;23.39;26.17
68077;BME280;54866;53.458;14.540;2023-06-04T10:27:10;101358.30;;;23.51;25.87
68077;BME280;54866;53.458;14.540;2023-06-04T10:30:00;101360.42;;;23.44;26.36
68077;BME280;54866;53.458;14.540;2023-06-04T10:32:34;101357.21;;;23.62;26.90
68077;BME280;54866;53.458;14.540;2023-06-04T10:35:14;101354.60;;;23.71;26.45
68077;BME280;54866;53.458;14.540;2023-06-04T10:38:10;101350.34;;;23.88;25.85
68077;BME280;54866;53.458;14.540;2023-06-04T10:40:50;101349.11;;;24.05;25.31
68077;BME280;54866;53.458;14.540;2023-06-04T10:43:29;101352.02;;;24.29;25.63
68077;BME280;54866;53.458;14.540;2023-06-04T10:48:57;101350.99;;;24.06;24.74
68077;BME280;54866;53.458;14.540;2023-06-04T10:51:33;101351.55;;;23.96;24.70
68077;BME280;54866;53.458;14.540;2023-06-04T10:54:05;101352.61;;;23.74;25.15
68077;BME280;54866;53.458;14.540;2023-06-04T10:56:35;101355.48;;;23.48;24.72
68077;BME280;54866;53.458;14.540;2023-06-04T10:59:16;101357.16;;;23.29;25.12
68077;BME280;54866;53.458;14.540;2023-06-04T11:01:46;101361.67;;;23.12;24.55
68077;BME280;54866;53.458;14.540;2023-06-04T11:04:23;101355.98;;;23.09;25.38
68077;BME280;54866;53.458;14.540;2023-06-04T11:07:03;101358.21;;;23.12;24.98
68077;BME280;54866;53.458;14.540;2023-06-04T11:09:37;101352.63;;;23.29;25.01
68077;BME280;54866;53.458;14.540;2023-06-04T11:12:08;101350.30;;;23.42;24.92
68077;BME280;54866;53.458;14.540;2023-06-04T11:14:38;101353.30;;;23.64;24.90
68077;BME280;54866;53.458;14.540;2023-06-04T11:17:14;101353.54;;;23.80;24.17
68077;BME280;54866;53.458;14.540;2023-06-04T11:19:43;101345.91;;;23.85;24.29
68077;BME280;54866;53.458;14.540;2023-06-04T11:22:13;101342.15;;;23.87;24.21
68077;BME280;54866;53.458;14.540;2023-06-04T11:24:42;101342.30;;;23.85;24.41
68077;BME280;54866;53.458;14.540;2023-06-04T11:27:13;101341.39;;;23.94;25.31
68077;BME280;54866;53.458;14.540;2023-06-04T11:29:43;101341.69;;;24.07;24.12
68077;BME280;54866;53.458;14.540;2023-06-04T11:32:22;101341.98;;;23.90;24.17
68077;BME280;54866;53.458;14.540;2023-06-04T11:35:01;101338.42;;;24.04;25.14
68077;BME280;54866;53.458;14.540;2023-06-04T11:37:31;101344.35;;;24.19;24.71
68077;BME280;54866;53.458;14.540;2023-06-04T11:40:01;101341.73;;;24.25;23.68
68077;BME280;54866;53.458;14.540;2023-06-04T11:42:33;101338.31;;;24.18;23.74
68077;BME280;54866;53.458;14.540;2023-06-04T11:45:05;101337.09;;;24.12;24.29
68077;BME280;54866;53.458;14.540;2023-06-04T11:47:36;101334.67;;;24.30;24.10
68077;BME280;54866;53.458;14.540;2023-06-04T11:50:09;101328.95;;;24.25;23.67
68077;BME280;54866;53.458;14.540;2023-06-04T11:52:39;101326.15;;;24.19;23.88
68077;BME280;54866;53.458;14.540;2023-06-04T11:55:10;101328.09;;;24.22;24.21
68077;BME280;54866;53.458;14.540;2023-06-04T11:57:41;101332.67;;;24.33;23.99
68077;BME280;54866;53.458;14.540;2023-06-04T12:00:12;101337.51;;;24.40;23.86
68077;BME280;54866;53.458;14.540;2023-06-04T12:02:51;101332.38;;;24.58;23.56
68077;BME280;54866;53.458;14.540;2023-06-04T12:05:23;101329.39;;;24.60;23.16
68077;BME280;54866;53.458;14.540;2023-06-04T12:08:02;101328.22;;;24.42;23.63
68077;BME280;54866;53.458;14.540;2023-06-04T12:10:38;101330.13;;;24.23;24.40
68077;BME280;54866;53.458;14.540;2023-06-04T12:13:08;101332.42;;;24.44;24.56
68077;BME280;54866;53.458;14.540;2023-06-04T12:15:38;101325.98;;;24.54;24.53
68077;BME280;54866;53.458;14.540;2023-06-04T12:18:07;101324.73;;;24.47;23.67
68077;BME280;54866;53.458;14.540;2023-06-04T12:20:39;101322.02;;;24.38;24.03
68077;BME280;54866;53.458;14.540;2023-06-04T12:23:18;101316.02;;;24.50;24.33
68077;BME280;54866;53.458;14.540;2023-06-04T12:25:51;101314.32;;;24.55;23.26
68077;BME280;54866;53.458;14.540;2023-06-04T12:28:21;101310.48;;;24.22;23.04
68077;BME280;54866;53.458;14.540;2023-06-04T12:30:50;101310.92;;;23.80;23.45
68077;BME280;54866;53.458;14.540;2023-06-04T12:33:20;101311.29;;;23.67;24.05
68077;BME280;54866;53.458;14.540;2023-06-04T12:35:49;101314.20;;;23.75;24.75
68077;BME280;54866;53.458;14.540;2023-06-04T12:38:19;101315.39;;;23.74;23.77
68077;BME280;54866;53.458;14.540;2023-06-04T12:40:49;101315.40;;;23.71;23.91
68077;BME280;54866;53.458;14.540;2023-06-04T12:43:18;101317.61;;;23.63;23.80
68077;BME280;54866;53.458;14.540;2023-06-04T12:45:48;101314.59;;;23.73;24.28
68077;BME280;54866;53.458;14.540;2023-06-04T12:48:17;101308.84;;;24.03;23.96
68077;BME280;54866;53.458;14.540;2023-06-04T12:50:47;101315.24;;;24.12;23.99
68077;BME280;54866;53.458;14.540;2023-06-04T12:53:17;101315.42;;;24.34;24.29
68077;BME280;54866;53.458;14.540;2023-06-04T12:55:46;101316.98;;;24.56;24.05
68077;BME280;54866;53.458;14.540;2023-06-04T12:58:16;101314.54;;;24.74;23.52
68077;BME280;54866;53.458;14.540;2023-06-04T13:00:46;101322.27;;;24.86;23.51
68077;BME280;54866;53.458;14.540;2023-06-04T13:03:16;101319.94;;;24.98;23.23
68077;BME280;54866;53.458;14.540;2023-06-04T13:05:45;101321.27;;;25.01;22.98
68077;BME280;54866;53.458;14.540;2023-06-04T13:08:15;101319.80;;;24.74;22.77
68077;BME280;54866;53.458;14.540;2023-06-04T13:10:45;101319.70;;;24.64;23.29
68077;BME280;54866;53.458;14.540;2023-06-04T13:13:15;101317.71;;;24.65;23.09
68077;BME280;54866;53.458;14.540;2023-06-04T13:15:44;101315.81;;;24.73;23.45
68077;BME280;54866;53.458;14.540;2023-06-04T13:18:14;101320.86;;;24.68;23.43
68077;BME280;54866;53.458;14.540;2023-06-04T13:20:44;101317.98;;;24.67;23.25
68077;BME280;54866;53.458;14.540;2023-06-04T13:23:13;101315.76;;;24.71;23.58
68077;BME280;54866;53.458;14.540;2023-06-04T13:25:43;101314.91;;;24.53;23.12
68077;BME280;54866;53.458;14.540;2023-06-04T13:28:13;101318.70;;;24.35;23.60
68077;BME280;54866;53.458;14.540;2023-06-04T13:30:43;101316.83;;;24.13;23.23
68077;BME280;54866;53.458;14.540;2023-06-04T13:33:13;101313.26;;;23.91;23.78